Time;durP1;ratioP1;P1;durP2;ratioP2;P2;SDS_P1;SDS_P2;PMS_P1;PMS_P2;Temp;Humidity;BMP_temperature;BMP_pressure;BME280_temperature;BME280_humidity;BME280_pressure;Samples;Min_cycle;Max_cycle;Signal;HPM_P1;HPM_P2
2023/03/20 00:01:27;;;;;;;16.70;10.88;;;7.60;99.90;;;;;;5050932;28;20071;-40
2023/03/20 00:03:53;;;;;;;22.75;10.10;;;7.60;99.90;;;;;;5070148;28;20405;-49
2023/03/20 00:06:21;;;;;;;24.27;11.20;;;7.60;99.90;;;;;;5074515;28;20048;-48
2023/03/20 00:08:48;;;;;;;22.38;11.10;;;7.60;99.90;;;;;;5061587;28;20425;-48
2023/03/20 00:11:29;;;;;;;21.05;11.07;;;7.50;99.90;;;;;;5075058;28;20078;-40
2023/03/20 00:13:56;;;;;;;22.25;10.90;;;7.60;99.90;;;;;;5075115;28;20055;-45
2023/03/20 00:16:24;;;;;;;27.60;11.80;;;7.60;99.90;;;;;;5074709;28;20127;-45
2023/03/20 00:18:49;;;;;;;20.48;11.05;;;7.60;99.90;;;;;;5073793;28;20122;-38
2023/03/20 00:21:19;;;;;;;27.08;11.00;;;7.60;99.90;;;;;;5075383;28;20139;-44
2023/03/20 00:23:45;;;;;;;27.63;11.13;;;7.60;99.90;;;;;;5069431;28;20073;-45
2023/03/20 00:26:18;;;;;;;22.42;9.85;;;7.60;99.90;;;;;;5073974;28;20036;-49
2023/03/20 00:28:48;;;;;;;26.65;10.60;;;7.60;99.90;;;;;;5075388;28;20048;-47
2023/03/20 00:31:23;;;;;;;25.88;10.05;;;7.60;99.90;;;;;;5075286;28;20044;-44
2023/03/20 00:33:50;;;;;;;26.27;9.52;;;7.60;99.90;;;;;;5045307;28;20594;-51
2023/03/20 00:36:15;;;;;;;17.17;8.88;;;7.60;99.90;;;;;;5053915;28;20059;-43
2023/03/20 00:38:41;;;;;;;21.88;9.55;;;7.60;99.90;;;;;;5044368;28;20491;-46
2023/03/20 00:41:30;;;;;;;20.52;8.80;;;7.60;99.90;;;;;;5055093;28;20049;-52
2023/03/20 00:44:03;;;;;;;21.42;8.45;;;7.60;99.90;;;;;;5051391;28;20068;-44
2023/03/20 00:46:38;;;;;;;24.03;8.30;;;7.60;99.90;;;;;;5050386;28;20389;-42
2023/03/20 00:49:04;;;;;;;22.83;8.27;;;7.60;99.90;;;;;;5031721;28;20389;-41
2023/03/20 00:51:30;;;;;;;20.27;8.90;;;7.60;99.90;;;;;;5041051;28;20543;-52
2023/03/20 00:53:56;;;;;;;15.48;8.65;;;7.60;99.90;;;;;;5050504;28;20055;-51
2023/03/20 00:56:35;;;;;;;17.00;7.75;;;7.60;99.90;;;;;;5050317;28;20609;-40
2023/03/20 00:59:02;;;;;;;17.35;6.93;;;7.60;99.90;;;;;;5048177;28;20155;-45
2023/03/20 01:01:30;;;;;;;15.65;7.00;;;7.60;99.90;;;;;;5040810;28;20063;-38
2023/03/20 01:03:56;;;;;;;16.98;8.63;;;7.60;99.90;;;;;;5045136;28;20613;-41
2023/03/20 01:06:22;;;;;;;17.67;7.25;;;7.60;99.90;;;;;;5050692;28;20479;-45
2023/03/20 01:08:47;;;;;;;14.30;7.00;;;7.60;99.90;;;;;;5051237;28;20145;-47
2023/03/20 01:11:15;;;;;;;13.68;7.22;;;7.50;99.90;;;;;;5055356;28;20096;-42
2023/03/20 01:13:41;;;;;;;19.85;8.10;;;7.60;99.90;;;;;;5055172;28;20064;-47
2023/03/20 01:16:21;;;;;;;14.43;7.90;;;7.60;99.90;;;;;;5054300;28;20079;-47
2023/03/20 01:18:47;;;;;;;18.38;7.78;;;7.60;99.90;;;;;;5054567;28;20525;-47
2023/03/20 01:21:12;;;;;;;14.90;7.60;;;7.60;99.90;;;;;;5068442;28;20068;-49
2023/03/20 01:23:38;;;;;;;19.83;8.18;;;7.60;99.90;;;;;;5077804;28;20106;-40
2023/03/20 01:26:21;;;;;;;23.45;9.07;;;7.60;99.90;;;;;;5076787;28;20489;-38
2023/03/20 01:28:47;;;;;;;16.90;8.03;;;7.60;99.90;;;;;;5094586;27;20588;-44
2023/03/20 01:31:15;;;;;;;17.40;7.55;;;7.60;99.90;;;;;;5076053;28;20052;-43
2023/03/20 01:33:41;;;;;;;16.23;8.40;;;7.60;99.90;;;;;;5047448;28;20495;-43
2023/03/20 01:36:11;;;;;;;14.45;7.30;;;7.60;99.90;;;;;;5056627;28;20545;-45
2023/03/20 01:38:37;;;;;;;18.73;8.75;;;7.60;99.90;;;;;;5048287;28;20059;-49
2023/03/20 01:41:16;;;;;;;11.70;7.88;;;7.60;99.90;;;;;;5057480;28;20055;-41
2023/03/20 01:43:44;;;;;;;13.60;7.60;;;7.60;99.90;;;;;;5058063;28;20143;-50
2023/03/20 01:46:24;;;;;;;17.65;9.27;;;7.60;99.90;;;;;;5056820;28;20548;-48
2023/03/20 01:48:49;;;;;;;17.77;8.90;;;7.60;99.90;;;;;;5058154;28;20044;-38
2023/03/20 01:51:21;;;;;;;18.60;9.70;;;7.50;99.90;;;;;;5056880;28;20044;-45
2023/03/20 01:53:51;;;;;;;18.63;9.48;;;7.60;99.90;;;;;;5057182;28;20088;-45
2023/03/20 01:56:19;;;;;;;20.52;10.07;;;7.50;99.90;;;;;;5056916;28;20051;-43
2023/03/20 01:58:52;;;;;;;22.17;12.23;;;7.50;99.90;;;;;;5056822;28;20045;-44
2023/03/20 02:01:18;;;;;;;21.83;11.68;;;7.50;99.90;;;;;;5045880;28;20059;-43
2023/03/20 02:03:48;;;;;;;20.85;11.80;;;7.50;99.90;;;;;;5056386;28;20053;-39
2023/03/20 02:06:14;;;;;;;23.90;11.63;;;7.50;99.90;;;;;;5055654;28;20044;-41
2023/03/20 02:08:52;;;;;;;22.05;12.85;;;7.50;99.90;;;;;;5059580;28;20141;-52
2023/03/20 02:11:22;;;;;;;24.27;12.02;;;7.50;99.90;;;;;;5077326;28;20478;-46
2023/03/20 02:13:54;;;;;;;23.15;11.73;;;7.50;99.90;;;;;;5072737;28;20052;-49
2023/03/20 02:16:20;;;;;;;19.30;11.75;;;7.50;99.90;;;;;;5055855;28;20432;-38
2023/03/20 02:18:48;;;;;;;22.77;11.82;;;7.50;99.90;;;;;;5056204;28;20054;-42
2023/03/20 02:22:03;;;;;;;17.85;10.48;;;7.50;99.90;;;;;;5056611;28;20041;-42
2023/03/20 02:25:06;;;;;;;20.23;12.63;;;7.50;99.90;;;;;;5055406;28;20052;-46
2023/03/20 02:27:41;;;;;;;26.10;10.73;;;7.50;99.90;;;;;;5056873;28;20127;-50
2023/03/20 02:30:25;;;;;;;17.23;11.25;;;7.50;99.90;;;;;;5056493;28;20056;-49
2023/03/20 02:33:09;;;;;;;21.23;10.88;;;7.50;99.90;;;;;;5045281;28;20132;-50
2023/03/20 02:35:53;;;;;;;16.10;11.13;;;7.50;99.90;;;;;;5055658;28;20053;-45
2023/03/20 02:38:22;;;;;;;19.98;11.02;;;7.50;99.90;;;;;;5053708;28;20054;-40
2023/03/20 02:41:13;;;;;;;24.13;11.82;;;7.50;99.90;;;;;;5076202;28;20048;-50
2023/03/20 02:43:57;;;;;;;18.85;10.57;;;7.50;99.90;;;;;;5077420;28;20387;-52
2023/03/20 02:46:34;;;;;;;;;;;7.50;99.90;;;;;;5069870;28;20048;-48
2023/03/20 02:49:17;;;;;;;20.05;10.00;;;7.50;99.90;;;;;;5053197;28;19932;-43
2023/03/20 02:52:12;;;;;;;14.60;9.45;;;7.50;99.90;;;;;;5076534;28;20088;-47
2023/03/20 02:54:49;;;;;;;16.58;9.48;;;7.50;99.90;;;;;;5051415;28;20490;-50
2023/03/20 02:57:43;;;;;;;18.80;9.68;;;7.60;99.90;;;;;;5075239;28;20040;-39
2023/03/20 03:00:27;;;;;;;16.10;9.55;;;7.50;99.90;;;;;;5051643;28;20455;-50
2023/03/20 03:03:13;;;;;;;16.10;9.07;;;7.60;99.90;;;;;;5052284;28;20066;-49
2023/03/20 03:05:55;;;;;;;17.50;9.00;;;7.60;99.90;;;;;;5053276;28;20048;-47
2023/03/20 03:08:24;;;;;;;14.38;9.48;;;7.60;99.90;;;;;;5055734;28;20561;-47
2023/03/20 03:11:13;;;;;;;13.82;9.50;;;7.60;99.90;;;;;;5055271;28;20052;-44
2023/03/20 03:13:47;;;;;;;17.88;9.57;;;7.60;99.90;;;;;;5055963;28;20060;-44
2023/03/20 03:16:31;;;;;;;15.43;9.18;;;7.60;99.90;;;;;;5053503;28;20193;-49
2023/03/20 03:19:08;;;;;;;15.13;8.73;;;7.50;99.90;;;;;;5055939;28;20451;-48
2023/03/20 03:21:37;;;;;;;17.35;8.93;;;7.50;99.90;;;;;;5054381;28;20048;-41
2023/03/20 03:24:04;;;;;;;15.35;7.78;;;7.60;99.90;;;;;;5062854;28;20120;-44
2023/03/20 03:26:35;;;;;;;12.90;7.97;;;7.60;99.90;;;;;;5074584;28;20090;-47
2023/03/20 03:29:05;;;;;;;15.05;8.98;;;7.60;99.90;;;;;;5075275;28;20501;-40
2023/03/20 03:31:31;;;;;;;13.00;8.95;;;7.60;99.90;;;;;;5054811;28;20464;-44
2023/03/20 03:33:59;;;;;;;17.63;9.73;;;7.50;99.90;;;;;;5045478;28;20450;-42
2023/03/20 03:36:46;;;;;;;17.65;9.00;;;7.50;99.90;;;;;;5053387;28;20127;-44
2023/03/20 03:39:50;;;;;;;13.00;9.48;;;7.50;99.90;;;;;;5049013;28;20056;-41
2023/03/20 03:42:29;;;;;;;18.42;9.43;;;7.50;99.90;;;;;;5004022;28;20061;-39
2023/03/20 03:45:10;;;;;;;18.77;9.85;;;7.50;99.90;;;;;;5011072;28;20840;-42
2023/03/20 03:47:57;;;;;;;18.85;9.65;;;7.50;99.90;;;;;;4997595;28;20050;-43
2023/03/20 03:50:53;;;;;;;15.48;9.68;;;7.50;99.90;;;;;;5012299;28;20100;-47
2023/03/20 03:53:29;;;;;;;14.35;9.65;;;7.50;99.90;;;;;;5012073;28;20451;-46
2023/03/20 03:56:00;;;;;;;17.20;9.90;;;7.50;99.90;;;;;;5010848;28;20054;-45
2023/03/20 03:58:26;;;;;;;18.88;10.02;;;7.50;99.90;;;;;;5011865;28;20091;-47
2023/03/20 04:00:54;;;;;;;16.58;10.05;;;7.40;99.90;;;;;;5011307;28;20563;-44
2023/03/20 04:03:24;;;;;;;19.02;9.48;;;7.40;99.90;;;;;;5011911;28;20053;-44
2023/03/20 04:05:53;;;;;;;14.30;9.50;;;7.40;99.90;;;;;;5010806;28;20062;-46
2023/03/20 04:08:18;;;;;;;17.77;9.43;;;7.40;99.90;;;;;;5011934;28;20057;-45
2023/03/20 04:10:44;;;;;;;15.15;9.75;;;7.40;99.90;;;;;;5011842;28;20669;-43
2023/03/20 04:13:10;;;;;;;21.90;10.82;;;7.40;99.90;;;;;;5012182;28;20061;-47
2023/03/20 04:15:37;;;;;;;16.63;10.38;;;7.40;99.90;;;;;;4994670;28;20120;-42
2023/03/20 04:18:03;;;;;;;14.95;9.60;;;7.40;99.90;;;;;;5009882;28;20064;-50
2023/03/20 04:20:29;;;;;;;15.15;9.43;;;7.40;99.90;;;;;;5074866;28;20662;-44
2023/03/20 04:22:55;;;;;;;21.70;11.43;;;7.40;99.90;;;;;;5076471;28;20060;-48
2023/03/20 04:25:23;;;;;;;23.98;13.23;;;7.30;99.90;;;;;;5069375;28;20051;-46
2023/03/20 04:27:49;;;;;;;17.65;10.77;;;7.30;99.90;;;;;;5055217;28;20590;-45
2023/03/20 04:30:16;;;;;;;23.98;12.43;;;7.30;99.90;;;;;;5072583;28;20044;-48
2023/03/20 04:32:41;;;;;;;16.42;11.68;;;7.30;99.90;;;;;;5052979;28;20053;-47
2023/03/20 04:35:07;;;;;;;23.83;12.93;;;7.20;99.90;;;;;;5052835;28;20409;-45
2023/03/20 04:37:33;;;;;;;19.25;12.32;;;7.20;99.90;;;;;;5044579;28;20076;-47
2023/03/20 04:39:59;;;;;;;22.15;12.98;;;7.20;99.90;;;;;;5052481;28;20574;-46
2023/03/20 04:42:24;;;;;;;22.60;13.25;;;7.20;99.90;;;;;;5066602;28;20412;-39
2023/03/20 04:44:50;;;;;;;21.33;13.07;;;7.20;99.90;;;;;;5075504;28;20402;-45
2023/03/20 04:47:16;;;;;;;19.58;11.93;;;7.20;99.90;;;;;;5078707;28;20056;-40
2023/03/20 04:49:42;;;;;;;25.38;14.18;;;7.20;99.90;;;;;;5077346;28;20605;-47
2023/03/20 04:52:08;;;;;;;22.95;13.77;;;7.20;99.90;;;;;;5078596;28;20127;-47
2023/03/20 04:54:33;;;;;;;18.33;12.88;;;7.20;99.90;;;;;;5057167;28;20056;-41
2023/03/20 04:56:59;;;;;;;17.60;12.02;;;7.20;99.90;;;;;;5071529;28;20047;-39
2023/03/20 04:59:25;;;;;;;20.95;13.23;;;7.20;99.90;;;;;;5057222;28;20506;-42
2023/03/20 05:01:50;;;;;;;19.55;12.15;;;7.20;99.90;;;;;;5047395;28;20049;-50
2023/03/20 05:04:16;;;;;;;23.25;13.57;;;7.20;99.90;;;;;;5055857;28;20131;-41
2023/03/20 05:06:42;;;;;;;26.52;13.52;;;7.20;99.90;;;;;;5055861;28;20040;-42
2023/03/20 05:09:09;;;;;;;19.33;12.48;;;7.10;99.90;;;;;;5064345;28;20044;-43
2023/03/20 05:11:35;;;;;;;20.83;11.93;;;7.20;99.90;;;;;;5078883;28;20070;-44
2023/03/20 05:14:01;;;;;;;21.25;12.80;;;7.20;99.90;;;;;;5078418;28;20047;-50
2023/03/20 05:16:26;;;;;;;19.80;12.63;;;7.20;99.90;;;;;;5078076;28;20755;-47
2023/03/20 05:18:52;;;;;;;22.45;12.40;;;7.10;99.90;;;;;;5078499;28;20471;-43
2023/03/20 05:21:18;;;;;;;21.70;13.23;;;7.20;99.90;;;;;;5078797;28;20048;-45
2023/03/20 05:23:43;;;;;;;19.40;12.55;;;7.20;99.90;;;;;;5077948;28;20490;-41
2023/03/20 05:26:09;;;;;;;19.58;12.63;;;7.10;99.90;;;;;;5069033;28;20364;-47
2023/03/20 05:28:35;;;;;;;20.65;12.00;;;7.10;99.90;;;;;;5078090;28;20048;-42
2023/03/20 05:31:01;;;;;;;20.70;12.68;;;7.20;99.90;;;;;;5078663;28;20105;-46
2023/03/20 05:33:27;;;;;;;20.33;12.85;;;7.10;99.90;;;;;;5050037;28;20380;-43
2023/03/20 05:35:52;;;;;;;19.20;11.07;;;7.10;99.90;;;;;;5056248;28;20667;-48
2023/03/20 05:38:21;;;;;;;16.05;11.95;;;7.10;99.90;;;;;;5045586;28;20525;-48
2023/03/20 05:40:48;;;;;;;20.55;12.35;;;7.10;99.90;;;;;;5056801;28;20055;-47
2023/03/20 05:43:14;;;;;;;20.48;12.70;;;7.10;99.90;;;;;;5058086;28;20048;-48
2023/03/20 05:45:41;;;;;;;16.30;11.95;;;7.10;99.90;;;;;;5056257;28;20036;-42
2023/03/20 05:48:07;;;;;;;18.48;11.43;;;7.10;99.90;;;;;;5058235;28;20060;-47
2023/03/20 05:50:33;;;;;;;18.15;12.23;;;7.10;99.90;;;;;;5057405;28;20048;-48
2023/03/20 05:52:59;;;;;;;21.85;12.02;;;7.10;99.90;;;;;;5057522;28;20052;-44
2023/03/20 05:55:25;;;;;;;24.20;12.82;;;7.10;99.90;;;;;;5051669;28;20076;-49
2023/03/20 05:57:51;;;;;;;21.60;12.27;;;7.10;99.90;;;;;;5077531;28;20109;-46
2023/03/20 06:00:17;;;;;;;18.92;12.15;;;7.10;99.90;;;;;;5060597;28;20056;-46
2023/03/20 06:02:43;;;;;;;16.70;11.38;;;7.10;99.90;;;;;;5063947;28;20125;-41
2023/03/20 06:05:09;;;;;;;21.20;11.98;;;7.10;99.90;;;;;;5074694;28;20051;-54
2023/03/20 06:07:34;;;;;;;17.77;11.40;;;7.10;99.90;;;;;;5070737;28;20375;-41
2023/03/20 06:10:00;;;;;;;17.58;12.32;;;7.20;99.90;;;;;;5070247;28;20086;-44
2023/03/20 06:12:26;;;;;;;16.85;11.43;;;7.10;99.90;;;;;;5077567;28;20044;-44
2023/03/20 06:14:51;;;;;;;18.58;11.75;;;7.10;99.90;;;;;;5076123;28;20132;-49
2023/03/20 06:17:17;;;;;;;20.33;12.48;;;7.20;99.90;;;;;;5070170;28;20047;-41
2023/03/20 06:19:42;;;;;;;20.40;12.95;;;7.20;99.90;;;;;;5070674;28;20140;-48
2023/03/20 06:22:08;;;;;;;22.80;13.10;;;7.20;99.90;;;;;;5070522;28;20148;-45
2023/03/20 06:24:34;;;;;;;17.75;11.98;;;7.20;99.90;;;;;;5067469;28;20055;-49
2023/03/20 06:27:00;;;;;;;19.65;13.95;;;7.20;99.90;;;;;;5063309;28;20048;-38
2023/03/20 06:29:27;;;;;;;22.30;13.43;;;7.20;99.90;;;;;;5076797;28;20094;-44
2023/03/20 06:31:53;;;;;;;21.98;13.20;;;7.20;99.90;;;;;;5068780;28;20708;-47
2023/03/20 06:34:19;;;;;;;22.52;13.27;;;7.20;99.90;;;;;;5049117;28;20529;-44
2023/03/20 06:36:45;;;;;;;21.48;13.18;;;7.30;99.90;;;;;;5052171;28;20107;-45
2023/03/20 06:39:11;;;;;;;24.33;13.57;;;7.30;99.90;;;;;;5050295;28;20558;-45
2023/03/20 06:41:38;;;;;;;21.55;13.38;;;7.30;99.90;;;;;;5056563;28;20055;-44
2023/03/20 06:44:03;;;;;;;19.60;13.30;;;7.30;99.90;;;;;;5055473;28;20071;-46
2023/03/20 06:46:29;;;;;;;26.25;13.95;;;7.30;99.90;;;;;;5058490;28;20455;-43
2023/03/20 06:48:55;;;;;;;22.73;13.65;;;7.30;99.90;;;;;;5055740;28;20053;-48
2023/03/20 06:51:21;;;;;;;22.48;14.27;;;7.30;99.90;;;;;;5055833;28;20055;-46
2023/03/20 06:53:46;;;;;;;20.58;13.90;;;7.30;99.90;;;;;;5053507;28;20059;-43
2023/03/20 06:56:12;;;;;;;23.05;14.52;;;7.30;99.90;;;;;;5054229;28;20752;-44
2023/03/20 06:58:38;;;;;;;21.75;13.48;;;7.40;99.90;;;;;;5055921;28;20554;-43
2023/03/20 07:01:16;;;;;;;21.38;15.93;;;7.40;99.90;;;;;;5051821;28;20105;-48
2023/03/20 07:03:42;;;;;;;23.10;14.23;;;7.40;99.90;;;;;;5055639;28;20052;-47
2023/03/20 07:06:10;;;;;;;25.88;15.50;;;7.50;99.90;;;;;;5075180;28;20046;-41
2023/03/20 07:08:36;;;;;;;25.08;15.73;;;7.50;99.90;;;;;;5074174;28;20070;-40
2023/03/20 07:11:03;;;;;;;24.38;15.93;;;7.60;99.90;;;;;;5076246;28;20058;-45
2023/03/20 07:13:29;;;;;;;26.95;15.70;;;7.60;99.90;;;;;;5043439;28;20310;-38
2023/03/20 07:15:57;;;;;;;23.67;16.02;;;7.70;99.90;;;;;;5052059;28;20048;-43
2023/03/20 07:18:24;;;;;;;30.92;17.08;;;7.70;99.90;;;;;;5071881;28;20135;-43
2023/03/20 07:20:57;;;;;;;27.63;17.00;;;7.80;99.90;;;;;;5066467;28;20399;-47
2023/03/20 07:23:22;;;;;;;23.70;16.08;;;7.80;99.90;;;;;;5072920;28;20241;-50
2023/03/20 07:25:48;;;;;;;21.90;15.00;;;7.90;99.90;;;;;;5064400;28;20033;-46
2023/03/20 07:28:14;;;;;;;24.77;16.60;;;7.90;99.90;;;;;;5058018;28;20449;-41
2023/03/20 07:30:40;;;;;;;24.15;15.65;;;7.90;99.90;;;;;;5054320;28;20041;-52
2023/03/20 07:33:06;;;;;;;23.48;14.57;;;8.00;99.90;;;;;;5054342;28;20189;-42
2023/03/20 07:35:32;;;;;;;28.63;16.58;;;8.00;99.90;;;;;;5054422;28;20479;-40
2023/03/20 07:37:58;;;;;;;23.02;15.07;;;8.00;99.90;;;;;;5055216;28;20049;-48
2023/03/20 07:40:23;;;;;;;24.35;15.57;;;8.10;99.90;;;;;;5054898;28;20052;-46
2023/03/20 07:42:49;;;;;;;27.10;17.10;;;8.10;99.90;;;;;;5054491;28;20048;-44
2023/03/20 07:45:17;;;;;;;27.27;16.55;;;8.20;99.90;;;;;;5054320;28;20044;-44
2023/03/20 07:47:47;;;;;;;24.13;17.13;;;8.20;99.90;;;;;;5058018;28;20056;-40
2023/03/20 07:50:12;;;;;;;24.08;15.73;;;8.30;99.90;;;;;;5057114;28;20053;-46
2023/03/20 07:52:38;;;;;;;24.45;16.67;;;8.30;99.90;;;;;;5057988;28;20403;-48
2023/03/20 07:55:05;;;;;;;25.38;15.63;;;8.30;99.90;;;;;;5053465;28;20048;-45
2023/03/20 07:57:30;;;;;;;23.70;15.95;;;8.40;99.90;;;;;;5054253;28;20218;-44
2023/03/20 07:59:56;;;;;;;22.00;14.55;;;8.40;99.90;;;;;;5052892;28;20044;-39
2023/03/20 08:02:21;;;;;;;23.15;16.33;;;8.40;99.90;;;;;;5054241;28;20458;-46
2023/03/20 08:04:47;;;;;;;25.02;16.30;;;8.40;99.90;;;;;;5052670;28;20179;-44
2023/03/20 08:07:13;;;;;;;23.98;14.77;;;8.50;99.90;;;;;;5054514;28;20549;-45
2023/03/20 08:09:39;;;;;;;21.13;14.23;;;8.60;99.90;;;;;;5063725;28;20646;-41
2023/03/20 08:12:05;;;;;;;20.83;14.43;;;8.60;99.90;;;;;;5057123;28;20059;-48
2023/03/20 08:14:31;;;;;;;21.55;14.45;;;8.60;99.90;;;;;;5057704;28;20036;-47
2023/03/20 08:16:57;;;;;;;18.10;13.82;;;8.70;99.90;;;;;;5034807;28;20037;-44
2023/03/20 08:19:23;;;;;;;24.15;15.85;;;8.70;99.90;;;;;;5036128;28;20080;-44
2023/03/20 08:21:50;;;;;;;23.98;14.60;;;8.80;99.90;;;;;;5042375;28;20203;-39
2023/03/20 08:24:16;;;;;;;22.60;14.32;;;8.80;99.90;;;;;;5071463;28;20573;-47
2023/03/20 08:26:43;;;;;;;16.90;13.25;;;8.80;99.90;;;;;;5037284;28;20037;-44
2023/03/20 08:29:09;;;;;;;22.25;14.70;;;8.80;99.90;;;;;;5046638;28;20495;-43
2023/03/20 08:31:34;;;;;;;23.65;15.13;;;8.80;99.90;;;;;;5056846;28;20553;-39
2023/03/20 08:34:00;;;;;;;20.50;13.43;;;8.90;99.90;;;;;;5048252;28;20048;-43
2023/03/20 08:36:26;;;;;;;18.92;13.80;;;8.90;99.90;;;;;;5073808;28;20040;-51
2023/03/20 08:38:52;;;;;;;28.42;14.25;;;8.90;99.90;;;;;;5061440;28;20460;-42
2023/03/20 08:41:18;;;;;;;20.50;14.23;;;9.00;99.90;;;;;;5078752;28;20482;-47
2023/03/20 08:43:43;;;;;;;19.60;12.60;;;9.10;99.90;;;;;;5077774;28;20393;-51
2023/03/20 08:46:09;;;;;;;20.63;13.43;;;9.10;99.90;;;;;;5064611;28;20139;-50
2023/03/20 08:48:35;;;;;;;20.65;14.02;;;9.20;99.90;;;;;;5078808;28;20051;-44
2023/03/20 08:51:01;;;;;;;22.92;13.35;;;9.20;99.90;;;;;;5077118;28;20144;-41
2023/03/20 08:53:27;;;;;;;19.88;11.68;;;9.30;99.90;;;;;;5064876;28;20384;-42
2023/03/20 08:55:53;;;;;;;21.92;14.30;;;9.30;99.90;;;;;;5056851;28;20117;-40
2023/03/20 08:58:20;;;;;;;22.73;13.05;;;9.40;99.90;;;;;;5058421;28;20070;-41
2023/03/20 09:00:46;;;;;;;21.85;12.52;;;9.40;99.90;;;;;;5055881;28;20135;-50
2023/03/20 09:03:16;;;;;;;17.65;13.10;;;9.50;99.90;;;;;;5058439;28;20051;-49
2023/03/20 09:05:48;;;;;;;19.95;12.38;;;9.40;99.90;;;;;;5055122;28;20561;-48
2023/03/20 09:08:14;;;;;;;17.63;11.70;;;9.30;99.90;;;;;;5056822;28;20059;-52
2023/03/20 09:10:40;;;;;;;18.38;11.43;;;9.40;99.90;;;;;;5058077;28;20151;-41
2023/03/20 09:13:06;;;;;;;20.13;12.32;;;9.40;99.90;;;;;;5058437;28;20048;-43
2023/03/20 09:15:33;;;;;;;20.80;11.90;;;9.40;99.90;;;;;;5055568;28;20068;-49
2023/03/20 09:17:59;;;;;;;19.55;11.75;;;9.50;99.90;;;;;;5058004;28;20923;-41
2023/03/20 09:20:25;;;;;;;17.63;12.80;;;9.50;99.90;;;;;;5057913;28;20044;-38
2023/03/20 09:22:51;;;;;;;18.92;11.52;;;9.60;99.90;;;;;;5058459;28;20438;-45
2023/03/20 09:25:16;;;;;;;22.80;12.77;;;9.70;99.90;;;;;;5055064;28;20395;-39
2023/03/20 09:27:42;;;;;;;22.63;14.35;;;9.60;99.90;;;;;;5057770;28;20509;-51
2023/03/20 09:30:09;;;;;;;19.17;12.35;;;9.80;99.90;;;;;;5056856;28;20044;-41
2023/03/20 09:32:35;;;;;;;19.35;13.23;;;9.70;99.90;;;;;;5056920;28;20406;-47
2023/03/20 09:35:02;;;;;;;19.98;12.18;;;9.80;99.90;;;;;;5056277;28;20095;-39
2023/03/20 09:37:27;;;;;;;19.55;12.15;;;9.90;99.90;;;;;;5055268;28;20047;-49
2023/03/20 09:39:53;;;;;;;24.48;12.65;;;10.00;99.90;;;;;;5055966;28;20079;-44
2023/03/20 09:42:27;;;;;;;19.35;12.32;;;10.00;99.90;;;;;;5049846;28;20045;-42
2023/03/20 09:45:00;;;;;;;21.02;13.15;;;10.00;99.90;;;;;;5049618;28;20671;-46
2023/03/20 09:47:50;;;;;;;21.52;12.00;;;10.00;99.90;;;;;;5049294;28;20045;-42
2023/03/20 09:50:36;;;;;;;22.23;12.85;;;10.10;99.90;;;;;;5038671;28;20057;-43
2023/03/20 09:53:21;;;;;;;22.63;11.35;;;10.10;99.90;;;;;;5049848;28;20052;-50
2023/03/20 09:55:48;;;;;;;19.17;10.57;;;10.10;99.90;;;;;;5051442;28;20079;-46
2023/03/20 09:58:24;;;;;;;22.27;10.73;;;10.10;99.90;;;;;;5053748;28;20059;-49
2023/03/20 10:00:50;;;;;;;24.00;12.07;;;10.00;99.90;;;;;;5052547;28;20084;-43
2023/03/20 10:03:26;;;;;;;21.30;10.50;;;9.90;99.90;;;;;;5043070;28;20124;-40
2023/03/20 10:06:06;;;;;;;19.83;11.05;;;9.80;99.90;;;;;;5055415;28;20111;-44
2023/03/20 10:08:35;;;;;;;17.60;9.45;;;9.80;99.90;;;;;;5071015;28;20087;-46
2023/03/20 10:11:29;;;;;;;18.75;9.57;;;9.80;99.90;;;;;;5067530;28;20453;-41
2023/03/20 10:14:10;;;;;;;19.63;10.07;;;9.80;99.90;;;;;;5054521;28;20135;-47
2023/03/20 10:17:01;;;;;;;20.65;10.15;;;9.70;99.90;;;;;;5052147;28;20040;-38
2023/03/20 10:19:43;;;;;;;19.15;9.32;;;9.80;99.90;;;;;;5052406;28;20037;-49
2023/03/20 10:22:28;;;;;;;20.70;9.45;;;9.90;99.90;;;;;;5063122;28;20044;-50
2023/03/20 10:25:19;;;;;;;18.75;9.80;;;9.90;99.90;;;;;;5071814;28;20114;-44
2023/03/20 10:27:53;;;;;;;21.77;11.73;;;9.90;99.90;;;;;;5051387;28;20053;-45
2023/03/20 10:30:25;;;;;;;18.95;10.13;;;9.90;99.90;;;;;;5056636;28;20548;-42
2023/03/20 10:33:12;;;;;;;15.73;10.10;;;9.90;99.90;;;;;;5044284;28;20061;-47
2023/03/20 10:35:44;;;;;;;20.02;10.38;;;10.00;99.90;;;;;;5065491;28;20122;-39
2023/03/20 10:38:44;;;;;;;19.25;10.02;;;10.00;99.90;;;;;;5046658;28;20049;-52
2023/03/20 10:41:26;;;;;;;18.85;9.93;;;10.00;99.90;;;;;;5053329;28;20433;-49
2023/03/20 10:43:52;;;;;;;16.45;9.40;;;9.90;99.90;;;;;;5052218;28;20076;-43
2023/03/20 10:46:20;;;;;;;18.85;9.63;;;9.80;99.90;;;;;;5052536;28;20418;-39
2023/03/20 10:49:00;;;;;;;17.05;9.25;;;9.70;99.90;;;;;;5054738;28;20495;-41
2023/03/20 10:51:57;;;;;;;16.60;10.00;;;9.70;99.90;;;;;;5067113;28;20052;-47
2023/03/20 10:54:45;;;;;;;18.50;9.18;;;9.70;99.90;;;;;;5049209;28;20391;-44
2023/03/20 10:57:24;;;;;;;21.40;10.00;;;9.90;99.90;;;;;;5052734;28;20232;-50
2023/03/20 10:59:51;;;;;;;14.52;8.65;;;9.90;99.90;;;;;;5050077;28;20899;-46
2023/03/20 11:02:20;;;;;;;17.75;8.93;;;10.00;99.90;;;;;;5051806;28;20385;-41
2023/03/20 11:04:46;;;;;;;17.45;10.05;;;10.00;99.90;;;;;;5034592;28;20078;-42
2023/03/20 11:07:36;;;;;;;15.52;9.68;;;9.90;99.90;;;;;;5053869;28;20044;-45
2023/03/20 11:10:05;;;;;;;17.60;9.82;;;9.90;99.90;;;;;;4974528;28;20058;-49
2023/03/20 11:12:39;;;;;;;17.55;9.95;;;9.90;99.90;;;;;;4984234;28;20061;-44
2023/03/20 11:15:25;;;;;;;16.10;8.77;;;9.90;99.90;;;;;;4981960;28;20058;-40
2023/03/20 11:17:57;;;;;;;17.27;9.77;;;9.90;99.90;;;;;;4993094;28;20084;-47
2023/03/20 11:20:24;;;;;;;21.23;10.50;;;9.80;99.90;;;;;;4999771;28;20221;-45
2023/03/20 11:22:56;;;;;;;22.17;11.00;;;9.90;99.90;;;;;;5012644;28;20092;-41
2023/03/20 11:25:35;;;;;;;12.77;10.52;;;9.90;99.90;;;;;;5011721;28;20128;-39
2023/03/20 11:28:33;;;;;;;16.20;10.60;;;9.90;99.90;;;;;;5012205;28;20100;-45
2023/03/20 11:31:24;;;;;;;19.60;11.15;;;9.80;99.90;;;;;;4995667;28;20054;-44
2023/03/20 11:34:29;;;;;;;19.23;10.95;;;9.70;99.90;;;;;;4989409;28;20061;-40
2023/03/20 11:36:57;;;;;;;15.75;11.75;;;9.70;99.90;;;;;;4987242;28;20329;-45
2023/03/20 11:39:26;;;;;;;16.17;11.52;;;9.50;99.90;;;;;;4972594;28;20058;-47
2023/03/20 11:41:55;;;;;;;20.77;11.02;;;9.50;99.90;;;;;;4991658;28;20089;-46
2023/03/20 11:44:29;;;;;;;18.23;11.05;;;9.40;99.90;;;;;;4988035;28;20377;-51
2023/03/20 11:46:56;;;;;;;14.10;10.98;;;9.50;99.90;;;;;;5017901;28;20059;-44
2023/03/20 11:49:23;;;;;;;18.73;10.75;;;9.50;99.90;;;;;;5074369;28;20062;-40
2023/03/20 11:51:50;;;;;;;13.93;10.10;;;9.50;99.90;;;;;;5075467;28;20055;-41
2023/03/20 11:54:21;;;;;;;15.65;10.40;;;9.40;99.90;;;;;;5054767;28;20340;-50
2023/03/20 11:56:55;;;;;;;17.10;11.25;;;9.40;99.90;;;;;;5055299;28;20538;-45
2023/03/20 11:59:24;;;;;;;18.42;11.80;;;9.30;99.90;;;;;;5053396;28;20044;-49
2023/03/20 12:01:53;;;;;;;19.08;11.77;;;9.20;99.90;;;;;;5055422;28;20473;-39
2023/03/20 12:04:28;;;;;;;20.88;12.57;;;9.10;99.90;;;;;;5053578;28;20060;-45
2023/03/20 12:07:11;;;;;;;19.23;12.55;;;9.10;99.90;;;;;;5054637;28;20633;-46
2023/03/20 12:09:55;;;;;;;19.38;13.38;;;9.00;99.90;;;;;;5055894;28;20048;-47
2023/03/20 12:12:37;;;;;;;18.63;12.52;;;9.00;99.90;;;;;;5074874;28;20051;-43
2023/03/20 12:15:11;;;;;;;25.08;13.80;;;8.90;99.90;;;;;;5072929;28;20059;-44
2023/03/20 12:17:56;;;;;;;22.38;14.50;;;8.90;99.90;;;;;;5065177;28;20093;-45
2023/03/20 12:20:28;;;;;;;20.38;14.32;;;8.90;99.90;;;;;;5075644;28;20086;-46
2023/03/20 12:23:09;;;;;;;21.83;14.65;;;8.90;99.90;;;;;;5062206;28;20095;-45
2023/03/20 12:25:52;;;;;;;19.83;14.05;;;8.90;99.90;;;;;;5054752;28;20139;-45
2023/03/20 12:28:36;;;;;;;19.20;12.77;;;8.90;99.90;;;;;;5054850;28;20083;-39
2023/03/20 12:31:01;;;;;;;;;;;8.90;99.90;;;;;;5049202;28;20133;-44
2023/03/20 12:34:00;;;;;;;17.25;13.52;;;8.80;99.90;;;;;;5045906;28;19971;-50
2023/03/20 12:36:42;;;;;;;19.30;13.23;;;8.70;99.90;;;;;;5026335;28;20056;-47
2023/03/20 12:39:15;;;;;;;18.05;14.73;;;8.80;99.90;;;;;;5019083;28;20053;-47
2023/03/20 12:42:17;;;;;;;18.70;15.25;;;8.80;99.90;;;;;;5032271;28;20491;-48
2023/03/20 12:45:03;;;;;;;19.70;13.88;;;8.90;99.90;;;;;;5031104;28;20061;-43
2023/03/20 12:47:42;;;;;;;19.27;14.23;;;8.80;99.90;;;;;;5017695;28;20053;-44
2023/03/20 12:50:34;;;;;;;18.27;14.38;;;8.70;99.90;;;;;;5031814;28;20057;-48
2023/03/20 12:53:14;;;;;;;19.48;15.55;;;8.70;99.90;;;;;;5023755;28;20107;-40
2023/03/20 12:55:59;;;;;;;18.88;16.20;;;8.70;99.90;;;;;;5014350;28;20049;-39
2023/03/20 12:58:34;;;;;;;22.67;16.05;;;8.70;99.90;;;;;;5031986;28;20049;-40
2023/03/20 13:01:19;;;;;;;19.30;16.70;;;8.70;99.90;;;;;;5012860;28;20498;-37
2023/03/20 13:04:22;;;;;;;21.70;15.52;;;8.70;99.90;;;;;;5025437;28;20088;-44